NAX320 EYPA-ENEV
Flight info
| Callsign | NAX320 |
|---|---|
| Flight time | N/A |
| Altitude | 37000 |
| Route | TIRIN M996 LUKED L136 OKLAD DCT ROSAX DCT AGIVU/N0455F380 DCT KELAS DCT SUVAR DCT NOMGA/N0456F370 DCT GILEN |
| Aircraft | A20N/M-SDE2E3FGHIRWXY/LB1 |
Departure
| Time | 2026-04-16 12:54 |
|---|---|
| Airport | Palanga International Airport (EYPA) |
Arrival
| Time | N/A |
|---|---|
| Airport | Harstad/Narvik Airport (ENEV) |
| Time | Latitude | Longitude | Altitude | Speed | Heading |
|---|---|---|---|---|---|
| 2026-04-16 12:35 | 55.96894 | 21.09572 | 33 ft | 0 kts | 288° |
| 2026-04-16 12:40 | 55.96896 | 21.09565 | 33 ft | 0 kts | 288° |
| 2026-04-16 12:43 | 55.96898 | 21.09554 | 32 ft | 3 kts | 288° |
| 2026-04-16 12:44 | 55.96905 | 21.09508 | 31 ft | 2 kts | 284° |
| 2026-04-16 12:44 | 55.96917 | 21.09493 | 31 ft | 2 kts | 358° |
| 2026-04-16 12:44 | 55.96949 | 21.09506 | 31 ft | 7 kts | 12° |
| 2026-04-16 12:44 | 55.97002 | 21.09527 | 31 ft | 7 kts | 13° |
| 2026-04-16 12:45 | 55.97048 | 21.09547 | 31 ft | 4 kts | 13° |
| 2026-04-16 12:45 | 55.97070 | 21.09548 | 30 ft | 3 kts | 337° |
| 2026-04-16 12:45 | 55.97085 | 21.09512 | 29 ft | 5 kts | 294° |
| 2026-04-16 12:45 | 55.97096 | 21.09431 | 28 ft | 7 kts | 282° |
| 2026-04-16 12:46 | 55.97105 | 21.09361 | 26 ft | 4 kts | 286° |
| 2026-04-16 12:46 | 55.97123 | 21.09323 | 25 ft | 4 kts | 329° |
| 2026-04-16 12:46 | 55.97149 | 21.09316 | 25 ft | 2 kts | 8° |
| 2026-04-16 12:46 | 55.97148 | 21.09315 | 25 ft | 2 kts | 11° |
| 2026-04-16 12:47 | 55.97134 | 21.09309 | 25 ft | 2 kts | 13° |
| 2026-04-16 12:47 | 55.97119 | 21.09304 | 25 ft | 2 kts | 13° |
| 2026-04-16 12:47 | 55.97104 | 21.09298 | 25 ft | 2 kts | 13° |
| 2026-04-16 12:47 | 55.97090 | 21.09292 | 26 ft | 2 kts | 13° |
| 2026-04-16 12:48 | 55.97075 | 21.09285 | 26 ft | 2 kts | 13° |
| 2026-04-16 12:48 | 55.97060 | 21.09279 | 26 ft | 2 kts | 13° |
| 2026-04-16 12:48 | 55.97046 | 21.09273 | 26 ft | 2 kts | 12° |
| 2026-04-16 12:48 | 55.97031 | 21.09267 | 26 ft | 2 kts | 13° |
| 2026-04-16 12:49 | 55.97017 | 21.09261 | 26 ft | 2 kts | 12° |
| 2026-04-16 12:49 | 55.97002 | 21.09255 | 26 ft | 2 kts | 13° |
| 2026-04-16 12:49 | 55.96988 | 21.09249 | 26 ft | 2 kts | 12° |
| 2026-04-16 12:49 | 55.96973 | 21.09243 | 26 ft | 2 kts | 13° |
| 2026-04-16 12:50 | 55.96958 | 21.09237 | 26 ft | 2 kts | 13° |
| 2026-04-16 12:50 | 55.96944 | 21.09231 | 25 ft | 2 kts | 13° |
| 2026-04-16 12:50 | 55.96929 | 21.09225 | 25 ft | 2 kts | 13° |
| 2026-04-16 12:50 | 55.96914 | 21.09219 | 25 ft | 2 kts | 12° |
| 2026-04-16 12:51 | 55.96900 | 21.09213 | 25 ft | 2 kts | 13° |
| 2026-04-16 12:51 | 55.96890 | 21.09209 | 25 ft | 0 kts | 13° |
| 2026-04-16 12:53 | 55.96906 | 21.09216 | 25 ft | 18 kts | 12° |
| 2026-04-16 12:53 | 55.97285 | 21.09365 | 25 ft | 91 kts | 12° |
| 2026-04-16 12:53 | 55.98119 | 21.09701 | 28 ft | 151 kts | 11° |
| 2026-04-16 12:53 | 55.99178 | 21.10106 | 533 ft | 156 kts | 10° |
| 2026-04-16 12:54 | 56.00254 | 21.10560 | 1041 ft | 165 kts | 10° |
| 2026-04-16 12:54 | 56.01426 | 21.10999 | 1428 ft | 183 kts | 1° |
| 2026-04-16 12:54 | 56.02723 | 21.10872 | 1938 ft | 196 kts | 346° |
| 2026-04-16 12:54 | 56.04102 | 21.10249 | 2477 ft | 213 kts | 346° |
| 2026-04-16 12:55 | 56.05619 | 21.09777 | 2990 ft | 231 kts | 350° |
| 2026-04-16 12:55 | 56.07250 | 21.09354 | 3596 ft | 244 kts | 351° |
| 2026-04-16 12:55 | 56.08913 | 21.08950 | 4428 ft | 247 kts | 352° |
| 2026-04-16 12:55 | 56.10619 | 21.08548 | 5256 ft | 251 kts | 353° |
| 2026-04-16 12:56 | 56.12344 | 21.08152 | 6063 ft | 254 kts | 353° |
| 2026-04-16 12:56 | 56.14102 | 21.07752 | 6868 ft | 258 kts | 354° |
| 2026-04-16 12:56 | 56.15888 | 21.07351 | 7653 ft | 262 kts | 354° |
| 2026-04-16 12:56 | 56.17677 | 21.06951 | 8404 ft | 266 kts | 354° |
| 2026-04-16 12:57 | 56.19528 | 21.06535 | 9149 ft | 269 kts | 354° |
| 2026-04-16 12:57 | 56.21368 | 21.06121 | 9870 ft | 273 kts | 354° |
| 2026-04-16 12:57 | 56.23271 | 21.05691 | 10545 ft | 278 kts | 354° |
| 2026-04-16 12:57 | 56.25213 | 21.05251 | 10898 ft | 294 kts | 354° |
| 2026-04-16 12:58 | 56.27313 | 21.04776 | 11211 ft | 311 kts | 354° |
| 2026-04-16 12:58 | 56.29470 | 21.04285 | 11704 ft | 320 kts | 354° |
| 2026-04-16 12:58 | 56.31688 | 21.03778 | 12391 ft | 323 kts | 354° |
| 2026-04-16 12:58 | 56.33908 | 21.03270 | 13056 ft | 327 kts | 354° |
| 2026-04-16 12:59 | 56.36175 | 21.02751 | 13680 ft | 330 kts | 354° |
| 2026-04-16 12:59 | 56.38458 | 21.02230 | 14277 ft | 334 kts | 354° |
| 2026-04-16 12:59 | 56.40748 | 21.01705 | 14878 ft | 338 kts | 354° |
| 2026-04-16 13:00 | 56.45451 | 21.00627 | 16033 ft | 345 kts | 355° |
| 2026-04-16 13:00 | 56.47840 | 21.00079 | 16601 ft | 349 kts | 355° |
| 2026-04-16 13:00 | 56.50235 | 20.99530 | 17153 ft | 353 kts | 355° |
| 2026-04-16 13:00 | 56.52668 | 20.98970 | 17700 ft | 356 kts | 355° |
| 2026-04-16 13:01 | 56.55140 | 20.98402 | 18247 ft | 359 kts | 355° |
| 2026-04-16 13:01 | 56.57604 | 20.97835 | 18777 ft | 363 kts | 355° |
| 2026-04-16 13:01 | 56.60134 | 20.97252 | 19298 ft | 366 kts | 355° |
| 2026-04-16 13:01 | 56.62636 | 20.96673 | 19831 ft | 368 kts | 355° |
| 2026-04-16 13:02 | 56.65161 | 20.96089 | 20357 ft | 371 kts | 355° |
| 2026-04-16 13:02 | 56.67734 | 20.95492 | 20860 ft | 374 kts | 355° |
| 2026-04-16 13:02 | 56.70319 | 20.94893 | 21354 ft | 377 kts | 356° |
| 2026-04-16 13:02 | 56.72926 | 20.94288 | 21841 ft | 380 kts | 356° |
| 2026-04-16 13:03 | 56.75532 | 20.93681 | 22319 ft | 383 kts | 356° |
| 2026-04-16 13:03 | 56.78178 | 20.93064 | 22794 ft | 385 kts | 356° |
| 2026-04-16 13:03 | 56.80822 | 20.92447 | 23273 ft | 388 kts | 356° |
| 2026-04-16 13:03 | 56.83505 | 20.91820 | 23741 ft | 390 kts | 356° |
| 2026-04-16 13:04 | 56.86172 | 20.91195 | 24192 ft | 393 kts | 356° |
| 2026-04-16 13:04 | 56.88891 | 20.90559 | 24609 ft | 395 kts | 356° |
| 2026-04-16 13:04 | 56.91618 | 20.89920 | 25011 ft | 398 kts | 356° |
| 2026-04-16 13:04 | 56.94341 | 20.89281 | 25401 ft | 400 kts | 356° |
| 2026-04-16 13:05 | 56.97110 | 20.88631 | 25791 ft | 403 kts | 356° |
| 2026-04-16 13:05 | 56.99895 | 20.87975 | 26167 ft | 405 kts | 356° |
| 2026-04-16 13:05 | 57.02704 | 20.87313 | 26529 ft | 408 kts | 356° |
| 2026-04-16 13:05 | 57.05526 | 20.86644 | 26869 ft | 411 kts | 356° |
| 2026-04-16 13:06 | 57.08349 | 20.85975 | 27208 ft | 414 kts | 356° |
| 2026-04-16 13:06 | 57.11218 | 20.85296 | 27547 ft | 417 kts | 356° |
| 2026-04-16 13:06 | 57.14057 | 20.84624 | 27882 ft | 419 kts | 357° |
| 2026-04-16 13:06 | 57.16971 | 20.83931 | 28178 ft | 422 kts | 357° |
| 2026-04-16 13:07 | 57.19853 | 20.83246 | 28467 ft | 424 kts | 357° |
| 2026-04-16 13:07 | 57.22784 | 20.82549 | 28756 ft | 427 kts | 357° |
| 2026-04-16 13:07 | 57.25709 | 20.81852 | 29056 ft | 428 kts | 357° |
| 2026-04-16 13:07 | 57.28666 | 20.81144 | 29339 ft | 430 kts | 357° |
| 2026-04-16 13:08 | 57.31625 | 20.80434 | 29603 ft | 432 kts | 357° |
| 2026-04-16 13:08 | 57.34603 | 20.79717 | 29855 ft | 434 kts | 357° |
| 2026-04-16 13:08 | 57.37598 | 20.78994 | 30097 ft | 437 kts | 357° |
| 2026-04-16 13:08 | 57.40601 | 20.78271 | 30318 ft | 439 kts | 357° |
| 2026-04-16 13:09 | 57.43634 | 20.77541 | 30535 ft | 441 kts | 357° |
| 2026-04-16 13:09 | 57.46689 | 20.76806 | 30728 ft | 444 kts | 357° |
| 2026-04-16 13:09 | 57.49744 | 20.76067 | 30964 ft | 444 kts | 357° |
| 2026-04-16 13:09 | 57.52779 | 20.75334 | 31238 ft | 444 kts | 357° |
| 2026-04-16 13:10 | 57.55846 | 20.74590 | 31536 ft | 443 kts | 356° |
| 2026-04-16 13:10 | 57.58878 | 20.73854 | 31816 ft | 442 kts | 356° |
| 2026-04-16 13:10 | 57.61902 | 20.73119 | 32065 ft | 441 kts | 356° |
| 2026-04-16 13:10 | 57.64936 | 20.72379 | 32305 ft | 440 kts | 356° |
| 2026-04-16 13:11 | 57.67946 | 20.71644 | 32561 ft | 439 kts | 356° |
| 2026-04-16 13:11 | 57.70975 | 20.70900 | 32803 ft | 438 kts | 356° |
| 2026-04-16 13:11 | 57.73949 | 20.70169 | 33002 ft | 437 kts | 356° |
| 2026-04-16 13:11 | 57.76962 | 20.69431 | 33226 ft | 436 kts | 356° |
| 2026-04-16 13:12 | 57.79947 | 20.68695 | 33417 ft | 436 kts | 355° |
| 2026-04-16 13:12 | 57.82965 | 20.67952 | 33595 ft | 435 kts | 355° |
| 2026-04-16 13:12 | 57.85934 | 20.67219 | 33778 ft | 435 kts | 355° |
| 2026-04-16 13:12 | 57.88931 | 20.66476 | 33962 ft | 434 kts | 355° |
| 2026-04-16 13:13 | 57.91895 | 20.65743 | 34145 ft | 433 kts | 355° |
| 2026-04-16 13:13 | 57.94883 | 20.65000 | 34327 ft | 433 kts | 355° |
| 2026-04-16 13:13 | 57.97827 | 20.64266 | 34513 ft | 433 kts | 355° |
| 2026-04-16 13:13 | 58.00810 | 20.63522 | 34694 ft | 432 kts | 355° |
| 2026-04-16 13:14 | 58.03786 | 20.62780 | 34834 ft | 432 kts | 355° |
| 2026-04-16 13:14 | 58.06761 | 20.62039 | 35032 ft | 432 kts | 355° |
| 2026-04-16 13:14 | 58.09698 | 20.61302 | 35199 ft | 432 kts | 354° |
| 2026-04-16 13:14 | 58.12653 | 20.60563 | 35368 ft | 431 kts | 354° |
| 2026-04-16 13:15 | 58.15635 | 20.59816 | 35554 ft | 431 kts | 354° |
| 2026-04-16 13:15 | 58.18570 | 20.59078 | 35710 ft | 430 kts | 354° |
| 2026-04-16 13:15 | 58.21520 | 20.58336 | 35847 ft | 430 kts | 354° |
| 2026-04-16 13:15 | 58.24473 | 20.57594 | 35988 ft | 430 kts | 354° |
| 2026-04-16 13:16 | 58.27440 | 20.56846 | 36148 ft | 430 kts | 354° |
| 2026-04-16 13:16 | 58.30388 | 20.56098 | 36301 ft | 429 kts | 354° |
| 2026-04-16 13:16 | 58.33332 | 20.55351 | 36432 ft | 429 kts | 354° |
| 2026-04-16 13:16 | 58.36276 | 20.54603 | 36548 ft | 429 kts | 354° |
| 2026-04-16 13:17 | 58.39204 | 20.53857 | 36674 ft | 429 kts | 354° |
| 2026-04-16 13:17 | 58.42181 | 20.53099 | 36794 ft | 429 kts | 354° |
| 2026-04-16 13:17 | 58.45122 | 20.52347 | 36912 ft | 429 kts | 354° |
| 2026-04-16 13:17 | 58.48069 | 20.51594 | 37018 ft | 429 kts | 354° |
| 2026-04-16 13:18 | 58.51010 | 20.50840 | 37100 ft | 430 kts | 354° |
| 2026-04-16 13:18 | 58.56923 | 20.49323 | 37142 ft | 431 kts | 354° |
| 2026-04-16 13:19 | 58.62845 | 20.47794 | 37140 ft | 431 kts | 354° |
| 2026-04-16 13:19 | 58.68740 | 20.46266 | 37144 ft | 431 kts | 354° |
| 2026-04-16 13:20 | 58.74660 | 20.44730 | 37156 ft | 432 kts | 354° |
| 2026-04-16 13:20 | 58.80605 | 20.43176 | 37164 ft | 432 kts | 354° |
| 2026-04-16 13:21 | 58.86560 | 20.41624 | 37162 ft | 433 kts | 354° |
| 2026-04-16 13:21 | 58.92475 | 20.40071 | 37156 ft | 432 kts | 354° |
| 2026-04-16 13:22 | 58.98410 | 20.38513 | 37147 ft | 432 kts | 354° |
| 2026-04-16 13:22 | 59.04351 | 20.36943 | 37149 ft | 433 kts | 354° |
| 2026-04-16 13:23 | 59.10271 | 20.35373 | 37150 ft | 433 kts | 354° |
| 2026-04-16 13:23 | 59.16243 | 20.33772 | 37148 ft | 433 kts | 353° |
| 2026-04-16 13:24 | 59.22172 | 20.32166 | 37156 ft | 434 kts | 353° |
| 2026-04-16 13:24 | 59.28136 | 20.30561 | 37159 ft | 434 kts | 353° |
| 2026-04-16 13:25 | 59.34085 | 20.28959 | 37167 ft | 434 kts | 353° |
| 2026-04-16 13:25 | 59.40058 | 20.27347 | 37165 ft | 434 kts | 353° |
| 2026-04-16 13:26 | 59.45981 | 20.25744 | 37161 ft | 434 kts | 353° |
| 2026-04-16 13:26 | 59.51953 | 20.24121 | 37162 ft | 434 kts | 353° |
| 2026-04-16 13:27 | 59.57886 | 20.22503 | 37161 ft | 434 kts | 353° |
| 2026-04-16 13:27 | 59.63836 | 20.20875 | 37174 ft | 434 kts | 353° |
| 2026-04-16 13:28 | 59.69794 | 20.19240 | 37184 ft | 434 kts | 353° |
| 2026-04-16 13:28 | 59.75757 | 20.17596 | 37181 ft | 434 kts | 353° |
| 2026-04-16 13:29 | 59.81713 | 20.15949 | 37175 ft | 435 kts | 353° |
| 2026-04-16 13:29 | 59.87685 | 20.14288 | 37177 ft | 435 kts | 354° |
| 2026-04-16 13:30 | 59.93636 | 20.12630 | 37179 ft | 435 kts | 354° |
| 2026-04-16 13:30 | 59.99608 | 20.10962 | 37184 ft | 435 kts | 354° |
| 2026-04-16 13:31 | 60.05574 | 20.09291 | 37196 ft | 436 kts | 353° |
| 2026-04-16 13:31 | 60.11566 | 20.07604 | 37190 ft | 436 kts | 353° |
| 2026-04-16 13:32 | 60.17548 | 20.05918 | 37189 ft | 436 kts | 354° |
| 2026-04-16 13:32 | 60.23545 | 20.04219 | 37204 ft | 436 kts | 353° |
| 2026-04-16 13:33 | 60.29492 | 20.02525 | 37203 ft | 436 kts | 354° |
| 2026-04-16 13:33 | 60.35497 | 20.00811 | 37195 ft | 436 kts | 353° |
| 2026-04-16 13:34 | 60.41471 | 19.99097 | 37204 ft | 436 kts | 353° |
| 2026-04-16 13:34 | 60.47425 | 19.97383 | 37195 ft | 436 kts | 353° |
| 2026-04-16 13:35 | 60.53410 | 19.95651 | 37210 ft | 436 kts | 354° |
| 2026-04-16 13:35 | 60.59395 | 19.93916 | 37207 ft | 435 kts | 354° |
| 2026-04-16 13:36 | 60.65348 | 19.92182 | 37195 ft | 435 kts | 353° |
| 2026-04-16 13:36 | 60.71312 | 19.90440 | 37197 ft | 436 kts | 353° |
| 2026-04-16 13:37 | 60.77311 | 19.88680 | 37195 ft | 436 kts | 353° |
| 2026-04-16 13:37 | 60.83289 | 19.86919 | 36894 ft | 436 kts | 353° |
| 2026-04-16 13:37 | 60.86253 | 19.86043 | 37317 ft | 434 kts | 353° |
| 2026-04-16 13:38 | 60.89236 | 19.85159 | 37253 ft | 436 kts | 353° |
| 2026-04-16 13:38 | 60.92239 | 19.84268 | 36931 ft | 436 kts | 353° |
| 2026-04-16 13:38 | 60.95223 | 19.83381 | 37071 ft | 435 kts | 353° |
| 2026-04-16 13:39 | 61.01186 | 19.81608 | 37167 ft | 437 kts | 353° |
| 2026-04-16 13:39 | 61.07168 | 19.79821 | 37192 ft | 437 kts | 353° |
| 2026-04-16 13:40 | 61.13156 | 19.78023 | 37206 ft | 438 kts | 353° |
| 2026-04-16 13:40 | 61.19157 | 19.76221 | 37206 ft | 438 kts | 353° |
| 2026-04-16 13:41 | 61.25176 | 19.74404 | 37212 ft | 438 kts | 353° |
| 2026-04-16 13:41 | 61.31186 | 19.72579 | 37203 ft | 438 kts | 353° |
| 2026-04-16 13:42 | 61.37142 | 19.70764 | 37217 ft | 437 kts | 353° |
| 2026-04-16 13:42 | 61.43152 | 19.68926 | 37223 ft | 436 kts | 353° |
| 2026-04-16 13:43 | 61.49126 | 19.67090 | 37215 ft | 436 kts | 353° |
| 2026-04-16 13:43 | 61.55091 | 19.65250 | 37224 ft | 436 kts | 353° |
| 2026-04-16 13:44 | 61.61077 | 19.63396 | 37225 ft | 436 kts | 353° |
| 2026-04-16 13:44 | 61.67086 | 19.61527 | 37220 ft | 437 kts | 353° |
| 2026-04-16 13:45 | 61.73068 | 19.59660 | 37231 ft | 437 kts | 353° |
| 2026-04-16 13:45 | 61.79010 | 19.57801 | 37239 ft | 436 kts | 353° |
| 2026-04-16 13:46 | 61.84998 | 19.55917 | 37237 ft | 436 kts | 353° |
| 2026-04-16 13:46 | 61.90968 | 19.54032 | 37239 ft | 435 kts | 353° |
| 2026-04-16 13:47 | 61.96923 | 19.52144 | 37239 ft | 435 kts | 353° |
| 2026-04-16 13:47 | 62.02887 | 19.50245 | 37233 ft | 435 kts | 353° |
| 2026-04-16 13:48 | 62.08849 | 19.48340 | 37235 ft | 436 kts | 353° |
| 2026-04-16 13:48 | 62.14817 | 19.46432 | 37237 ft | 436 kts | 353° |
| 2026-04-16 13:49 | 62.20771 | 19.44520 | 37243 ft | 436 kts | 353° |
| 2026-04-16 13:49 | 62.26731 | 19.42594 | 37241 ft | 435 kts | 353° |
| 2026-04-16 13:50 | 62.32697 | 19.40659 | 37243 ft | 435 kts | 353° |
| 2026-04-16 13:50 | 62.38641 | 19.38721 | 37244 ft | 435 kts | 353° |
| 2026-04-16 13:51 | 62.44620 | 19.36764 | 37248 ft | 435 kts | 352° |
| 2026-04-16 13:51 | 62.50559 | 19.34813 | 37253 ft | 436 kts | 352° |
| 2026-04-16 13:52 | 62.56539 | 19.32815 | 37256 ft | 435 kts | 351° |
| 2026-04-16 13:52 | 62.62500 | 19.30822 | 37253 ft | 435 kts | 351° |
| 2026-04-16 13:53 | 62.68420 | 19.28845 | 37259 ft | 435 kts | 351° |
| 2026-04-16 13:53 | 62.74387 | 19.26850 | 37265 ft | 435 kts | 351° |
| 2026-04-16 13:54 | 62.80346 | 19.24849 | 37260 ft | 435 kts | 351° |
| 2026-04-16 13:54 | 62.86275 | 19.22852 | 37432 ft | 434 kts | 351° |
| 2026-04-16 13:55 | 62.92212 | 19.20845 | 36996 ft | 432 kts | 351° |
| 2026-04-16 13:55 | 62.95137 | 19.19852 | 37143 ft | 431 kts | 351° |
| 2026-04-16 13:55 | 62.98126 | 19.18835 | 37212 ft | 433 kts | 351° |
| 2026-04-16 13:56 | 63.04033 | 19.16822 | 37249 ft | 434 kts | 351° |
| 2026-04-16 13:56 | 63.09967 | 19.14790 | 37259 ft | 435 kts | 351° |
| 2026-04-16 13:57 | 63.15921 | 19.12752 | 37262 ft | 435 kts | 351° |
| 2026-04-16 13:57 | 63.21890 | 19.10695 | 37262 ft | 435 kts | 351° |
| 2026-04-16 13:58 | 63.30794 | 19.07610 | 37263 ft | 434 kts | 351° |
| 2026-04-16 13:58 | 63.36726 | 19.05544 | 37264 ft | 434 kts | 351° |
| 2026-04-16 13:59 | 63.42635 | 19.03475 | 37264 ft | 434 kts | 351° |
| 2026-04-16 13:59 | 63.48558 | 19.01391 | 37266 ft | 434 kts | 352° |
| 2026-04-16 14:00 | 63.54502 | 18.99290 | 37267 ft | 434 kts | 352° |
| 2026-04-16 14:00 | 63.60432 | 18.97184 | 37261 ft | 433 kts | 352° |
| 2026-04-16 14:01 | 63.66341 | 18.95078 | 37257 ft | 432 kts | 352° |
| 2026-04-16 14:01 | 63.72244 | 18.92968 | 37254 ft | 432 kts | 352° |
| 2026-04-16 14:02 | 63.78160 | 18.90844 | 37250 ft | 431 kts | 352° |
| 2026-04-16 14:02 | 63.84026 | 18.88731 | 37240 ft | 431 kts | 352° |
| 2026-04-16 14:03 | 63.89910 | 18.86599 | 37140 ft | 428 kts | 352° |
| 2026-04-16 14:03 | 63.92813 | 18.85541 | 36792 ft | 425 kts | 352° |
| 2026-04-16 14:03 | 63.95724 | 18.84478 | 36323 ft | 428 kts | 352° |
| 2026-04-16 14:04 | 63.98646 | 18.83410 | 35903 ft | 430 kts | 353° |
| 2026-04-16 14:04 | 64.01592 | 18.82331 | 35478 ft | 431 kts | 353° |
| 2026-04-16 14:04 | 64.04527 | 18.81255 | 34997 ft | 431 kts | 353° |
| 2026-04-16 14:04 | 64.07469 | 18.80177 | 34366 ft | 431 kts | 353° |
| 2026-04-16 14:05 | 64.10412 | 18.79099 | 33680 ft | 432 kts | 353° |
| 2026-04-16 14:05 | 64.13385 | 18.78012 | 32952 ft | 434 kts | 353° |
| 2026-04-16 14:05 | 64.16341 | 18.76926 | 32204 ft | 436 kts | 353° |
| 2026-04-16 14:05 | 64.19308 | 18.75831 | 31459 ft | 438 kts | 353° |
| 2026-04-16 14:06 | 64.22310 | 18.74721 | 30683 ft | 440 kts | 352° |
| 2026-04-16 14:06 | 64.25301 | 18.73610 | 30049 ft | 438 kts | 352° |
| 2026-04-16 14:06 | 64.28263 | 18.72502 | 29526 ft | 433 kts | 353° |
| 2026-04-16 14:06 | 64.31220 | 18.71398 | 29006 ft | 429 kts | 352° |
| 2026-04-16 14:07 | 64.34154 | 18.70300 | 28470 ft | 425 kts | 352° |
| 2026-04-16 14:07 | 64.37051 | 18.69213 | 27903 ft | 422 kts | 352° |
| 2026-04-16 14:07 | 64.39927 | 18.68135 | 27350 ft | 419 kts | 352° |
| 2026-04-16 14:07 | 64.42744 | 18.67073 | 26803 ft | 417 kts | 352° |
| 2026-04-16 14:08 | 64.45601 | 18.65995 | 26249 ft | 414 kts | 352° |
| 2026-04-16 14:08 | 64.48404 | 18.64935 | 25728 ft | 411 kts | 352° |
| 2026-04-16 14:08 | 64.51216 | 18.63867 | 25337 ft | 406 kts | 352° |
| 2026-04-16 14:08 | 64.53973 | 18.62818 | 25283 ft | 408 kts | 352° |
| 2026-04-16 14:09 | 64.56750 | 18.61761 | 25278 ft | 408 kts | 352° |
| 2026-04-16 14:09 | 64.59569 | 18.60685 | 25276 ft | 408 kts | 352° |
| 2026-04-16 14:09 | 64.62337 | 18.59627 | 25276 ft | 408 kts | 352° |
| 2026-04-16 14:09 | 64.65151 | 18.58550 | 25270 ft | 407 kts | 352° |
| 2026-04-16 14:10 | 64.67937 | 18.57480 | 25265 ft | 407 kts | 352° |
| 2026-04-16 14:10 | 64.70710 | 18.56413 | 25265 ft | 407 kts | 352° |
| 2026-04-16 14:10 | 64.73465 | 18.55353 | 25264 ft | 407 kts | 352° |
| 2026-04-16 14:10 | 64.76263 | 18.54271 | 25261 ft | 407 kts | 352° |
| 2026-04-16 14:11 | 64.79053 | 18.53191 | 25259 ft | 407 kts | 352° |
| 2026-04-16 14:11 | 64.81808 | 18.52123 | 25257 ft | 407 kts | 352° |
| 2026-04-16 14:11 | 64.84609 | 18.51034 | 25259 ft | 407 kts | 351° |
| 2026-04-16 14:11 | 64.87402 | 18.49943 | 25259 ft | 408 kts | 351° |
| 2026-04-16 14:12 | 64.90189 | 18.48852 | 25262 ft | 407 kts | 352° |
| 2026-04-16 14:12 | 64.92964 | 18.47765 | 25267 ft | 406 kts | 352° |
| 2026-04-16 14:12 | 64.95734 | 18.46679 | 25273 ft | 405 kts | 352° |
| 2026-04-16 14:12 | 64.98479 | 18.45600 | 25280 ft | 404 kts | 352° |
| 2026-04-16 14:13 | 65.01236 | 18.44515 | 25282 ft | 404 kts | 352° |
| 2026-04-16 14:13 | 65.04013 | 18.43419 | 25283 ft | 404 kts | 351° |
| 2026-04-16 14:13 | 65.06750 | 18.42337 | 25282 ft | 404 kts | 352° |
| 2026-04-16 14:13 | 65.09525 | 18.41236 | 25280 ft | 405 kts | 352° |
| 2026-04-16 14:14 | 65.12301 | 18.40139 | 25280 ft | 405 kts | 351° |
| 2026-04-16 14:14 | 65.15044 | 18.39055 | 25279 ft | 405 kts | 351° |
| 2026-04-16 14:14 | 65.17834 | 18.37947 | 25279 ft | 406 kts | 351° |
| 2026-04-16 14:14 | 65.20615 | 18.36838 | 25278 ft | 406 kts | 351° |
| 2026-04-16 14:15 | 65.23368 | 18.35736 | 25276 ft | 406 kts | 351° |
| 2026-04-16 14:15 | 65.26153 | 18.34616 | 25275 ft | 406 kts | 351° |
| 2026-04-16 14:15 | 65.28923 | 18.33487 | 25274 ft | 405 kts | 351° |
| 2026-04-16 14:15 | 65.31685 | 18.32360 | 25273 ft | 405 kts | 351° |
| 2026-04-16 14:16 | 65.34450 | 18.31235 | 25271 ft | 405 kts | 351° |
| 2026-04-16 14:16 | 65.37206 | 18.30112 | 25269 ft | 405 kts | 351° |
| 2026-04-16 14:16 | 65.39973 | 18.28988 | 25267 ft | 404 kts | 351° |
| 2026-04-16 14:16 | 65.42708 | 18.27875 | 25265 ft | 404 kts | 351° |
| 2026-04-16 14:17 | 65.45493 | 18.26739 | 25265 ft | 404 kts | 351° |
| 2026-04-16 14:17 | 65.48255 | 18.25609 | 25265 ft | 403 kts | 351° |
| 2026-04-16 14:17 | 65.50970 | 18.24499 | 25267 ft | 400 kts | 351° |
| 2026-04-16 14:17 | 65.53718 | 18.23375 | 25267 ft | 398 kts | 351° |
| 2026-04-16 14:18 | 65.56413 | 18.22275 | 25266 ft | 398 kts | 350° |
| 2026-04-16 14:18 | 65.59145 | 18.21154 | 25265 ft | 397 kts | 350° |
| 2026-04-16 14:18 | 65.61833 | 18.20045 | 25265 ft | 397 kts | 349° |
| 2026-04-16 14:18 | 65.64559 | 18.18915 | 25264 ft | 398 kts | 349° |
| 2026-04-16 14:19 | 65.67272 | 18.17787 | 25263 ft | 398 kts | 350° |
| 2026-04-16 14:19 | 65.69993 | 18.16654 | 25263 ft | 398 kts | 350° |
| 2026-04-16 14:19 | 65.72689 | 18.15530 | 25265 ft | 398 kts | 350° |
| 2026-04-16 14:19 | 65.75409 | 18.14394 | 25265 ft | 398 kts | 350° |
| 2026-04-16 14:20 | 65.78133 | 18.13253 | 25262 ft | 398 kts | 350° |
| 2026-04-16 14:20 | 65.80843 | 18.12117 | 25260 ft | 398 kts | 350° |
| 2026-04-16 14:20 | 65.83572 | 18.10971 | 25256 ft | 397 kts | 350° |
| 2026-04-16 14:20 | 65.86263 | 18.09839 | 25253 ft | 397 kts | 350° |
| 2026-04-16 14:21 | 65.88967 | 18.08701 | 25252 ft | 397 kts | 350° |
| 2026-04-16 14:21 | 65.91668 | 18.07561 | 25252 ft | 396 kts | 350° |
| 2026-04-16 14:21 | 65.94384 | 18.06411 | 25252 ft | 396 kts | 350° |
| 2026-04-16 14:21 | 65.97104 | 18.05258 | 25252 ft | 396 kts | 350° |
| 2026-04-16 14:22 | 65.99780 | 18.04121 | 25252 ft | 397 kts | 350° |
| 2026-04-16 14:22 | 66.02482 | 18.02970 | 25250 ft | 397 kts | 350° |
| 2026-04-16 14:22 | 66.05190 | 18.01814 | 25248 ft | 397 kts | 350° |
| 2026-04-16 14:22 | 66.07894 | 18.00657 | 25252 ft | 397 kts | 350° |
| 2026-04-16 14:23 | 66.10615 | 17.99489 | 25248 ft | 397 kts | 350° |
| 2026-04-16 14:23 | 66.13329 | 17.98327 | 25247 ft | 396 kts | 350° |
| 2026-04-16 14:23 | 66.16018 | 17.97174 | 25247 ft | 397 kts | 350° |
| 2026-04-16 14:23 | 66.18721 | 17.96013 | 25247 ft | 396 kts | 350° |
| 2026-04-16 14:24 | 66.21445 | 17.94838 | 25246 ft | 396 kts | 350° |
| 2026-04-16 14:24 | 66.24151 | 17.93667 | 25243 ft | 395 kts | 350° |
| 2026-04-16 14:24 | 66.26823 | 17.92508 | 25244 ft | 395 kts | 350° |
| 2026-04-16 14:24 | 66.29505 | 17.91341 | 25238 ft | 394 kts | 350° |
| 2026-04-16 14:25 | 66.32188 | 17.90172 | 25238 ft | 394 kts | 350° |
| 2026-04-16 14:25 | 66.34889 | 17.88991 | 25238 ft | 394 kts | 350° |
| 2026-04-16 14:25 | 66.37572 | 17.87815 | 25239 ft | 394 kts | 350° |
| 2026-04-16 14:25 | 66.40253 | 17.86639 | 25239 ft | 394 kts | 350° |
| 2026-04-16 14:26 | 66.42956 | 17.85449 | 25236 ft | 394 kts | 350° |
| 2026-04-16 14:26 | 66.45634 | 17.84269 | 25237 ft | 393 kts | 349° |
| 2026-04-16 14:26 | 66.48338 | 17.83074 | 25239 ft | 393 kts | 349° |
| 2026-04-16 14:26 | 66.51020 | 17.81885 | 25239 ft | 393 kts | 349° |
| 2026-04-16 14:27 | 66.53691 | 17.80697 | 25237 ft | 393 kts | 350° |
| 2026-04-16 14:27 | 66.56361 | 17.79507 | 25237 ft | 392 kts | 350° |
| 2026-04-16 14:27 | 66.59036 | 17.78313 | 25238 ft | 391 kts | 350° |
| 2026-04-16 14:27 | 66.61687 | 17.77128 | 25238 ft | 391 kts | 350° |
| 2026-04-16 14:28 | 66.64365 | 17.75929 | 25241 ft | 391 kts | 350° |
| 2026-04-16 14:28 | 66.67031 | 17.74733 | 25224 ft | 390 kts | 350° |
| 2026-04-16 14:28 | 66.69665 | 17.73550 | 24984 ft | 385 kts | 350° |
| 2026-04-16 14:28 | 66.72239 | 17.72392 | 25000 ft | 363 kts | 350° |
| 2026-04-16 14:29 | 66.74615 | 17.71322 | 25255 ft | 335 kts | 350° |
| 2026-04-16 14:29 | 66.76839 | 17.70318 | 24966 ft | 322 kts | 350° |
| 2026-04-16 14:29 | 66.78993 | 17.69344 | 24720 ft | 309 kts | 350° |
| 2026-04-16 14:29 | 66.81046 | 17.68415 | 24485 ft | 297 kts | 349° |
| 2026-04-16 14:30 | 66.83037 | 17.67510 | 24248 ft | 284 kts | 350° |
| 2026-04-16 14:30 | 66.84929 | 17.66647 | 23985 ft | 274 kts | 350° |
| 2026-04-16 14:30 | 66.86774 | 17.65805 | 23584 ft | 270 kts | 350° |
| 2026-04-16 14:30 | 66.88605 | 17.64968 | 23132 ft | 267 kts | 350° |
| 2026-04-16 14:31 | 66.90419 | 17.64140 | 22662 ft | 266 kts | 349° |
| 2026-04-16 14:31 | 66.92226 | 17.63313 | 22189 ft | 264 kts | 349° |
| 2026-04-16 14:31 | 66.94006 | 17.62497 | 21731 ft | 262 kts | 349° |
| 2026-04-16 14:31 | 66.95797 | 17.61673 | 21274 ft | 261 kts | 349° |
| 2026-04-16 14:32 | 66.97546 | 17.60869 | 20829 ft | 259 kts | 349° |
| 2026-04-16 14:32 | 66.99303 | 17.60059 | 20395 ft | 256 kts | 349° |
| 2026-04-16 14:32 | 67.01040 | 17.59258 | 20216 ft | 254 kts | 349° |
| 2026-04-16 14:32 | 67.02775 | 17.58454 | 20221 ft | 253 kts | 349° |
| 2026-04-16 14:33 | 67.04488 | 17.57659 | 20014 ft | 249 kts | 349° |
| 2026-04-16 14:33 | 67.06181 | 17.56874 | 19540 ft | 249 kts | 349° |
| 2026-04-16 14:33 | 67.07877 | 17.56086 | 19056 ft | 249 kts | 349° |
| 2026-04-16 14:33 | 67.09560 | 17.55302 | 18609 ft | 248 kts | 349° |
| 2026-04-16 14:34 | 67.11243 | 17.54522 | 18183 ft | 245 kts | 349° |
| 2026-04-16 14:34 | 67.12899 | 17.53757 | 17771 ft | 243 kts | 349° |
| 2026-04-16 14:34 | 67.14547 | 17.52991 | 17348 ft | 241 kts | 349° |
| 2026-04-16 14:34 | 67.16168 | 17.52235 | 16920 ft | 239 kts | 349° |
| 2026-04-16 14:35 | 67.17787 | 17.51478 | 16502 ft | 237 kts | 349° |
| 2026-04-16 14:35 | 67.19393 | 17.50726 | 16088 ft | 235 kts | 349° |
| 2026-04-16 14:35 | 67.20988 | 17.49977 | 15655 ft | 234 kts | 349° |
| 2026-04-16 14:35 | 67.22568 | 17.49234 | 15271 ft | 231 kts | 349° |
| 2026-04-16 14:36 | 67.24144 | 17.48492 | 15182 ft | 230 kts | 349° |
| 2026-04-16 14:36 | 67.25668 | 17.47777 | 15195 ft | 216 kts | 349° |
| 2026-04-16 14:36 | 67.27115 | 17.47097 | 15180 ft | 212 kts | 349° |
| 2026-04-16 14:36 | 67.28567 | 17.46410 | 15177 ft | 212 kts | 349° |
| 2026-04-16 14:37 | 67.30004 | 17.45730 | 15177 ft | 211 kts | 349° |
| 2026-04-16 14:37 | 67.31447 | 17.45046 | 15178 ft | 212 kts | 349° |
| 2026-04-16 14:37 | 67.32886 | 17.44364 | 15177 ft | 211 kts | 349° |
| 2026-04-16 14:37 | 67.34329 | 17.43677 | 15178 ft | 211 kts | 349° |
| 2026-04-16 14:38 | 67.35761 | 17.42995 | 15178 ft | 211 kts | 349° |
| 2026-04-16 14:38 | 67.37215 | 17.42300 | 15178 ft | 212 kts | 349° |
| 2026-04-16 14:38 | 67.38657 | 17.41612 | 15179 ft | 212 kts | 349° |
| 2026-04-16 14:38 | 67.40111 | 17.40918 | 15180 ft | 212 kts | 349° |
| 2026-04-16 14:39 | 67.41556 | 17.40229 | 15180 ft | 212 kts | 349° |
| 2026-04-16 14:39 | 67.42988 | 17.39544 | 15180 ft | 212 kts | 349° |
| 2026-04-16 14:39 | 67.44426 | 17.38856 | 15182 ft | 211 kts | 349° |
| 2026-04-16 14:39 | 67.45870 | 17.38164 | 15183 ft | 211 kts | 349° |
| 2026-04-16 14:40 | 67.47320 | 17.37467 | 15182 ft | 211 kts | 349° |
| 2026-04-16 14:40 | 67.48750 | 17.36779 | 15182 ft | 211 kts | 349° |
| 2026-04-16 14:40 | 67.50183 | 17.36089 | 15184 ft | 210 kts | 349° |
| 2026-04-16 14:40 | 67.51605 | 17.35402 | 15186 ft | 210 kts | 349° |
| 2026-04-16 14:41 | 67.53053 | 17.34700 | 15189 ft | 210 kts | 348° |
| 2026-04-16 14:41 | 67.54475 | 17.34000 | 15189 ft | 210 kts | 348° |
| 2026-04-16 14:41 | 67.55912 | 17.33293 | 15190 ft | 210 kts | 348° |
| 2026-04-16 14:41 | 67.57349 | 17.32589 | 15162 ft | 208 kts | 348° |
| 2026-04-16 14:42 | 67.58748 | 17.31906 | 14868 ft | 205 kts | 348° |
| 2026-04-16 14:42 | 67.60138 | 17.31228 | 14392 ft | 206 kts | 348° |
| 2026-04-16 14:42 | 67.61544 | 17.30542 | 13949 ft | 205 kts | 348° |
| 2026-04-16 14:42 | 67.62930 | 17.29866 | 13532 ft | 204 kts | 348° |
| 2026-04-16 14:43 | 67.64313 | 17.29192 | 13103 ft | 204 kts | 348° |
| 2026-04-16 14:43 | 67.65700 | 17.28515 | 12674 ft | 203 kts | 348° |
| 2026-04-16 14:43 | 67.67069 | 17.27846 | 12251 ft | 203 kts | 348° |
| 2026-04-16 14:43 | 67.68453 | 17.27169 | 11825 ft | 202 kts | 348° |
| 2026-04-16 14:44 | 67.69825 | 17.26497 | 11398 ft | 202 kts | 348° |
| 2026-04-16 14:44 | 67.71200 | 17.25823 | 10974 ft | 202 kts | 348° |
| 2026-04-16 14:44 | 67.72566 | 17.25152 | 10550 ft | 202 kts | 348° |
| 2026-04-16 14:44 | 67.73949 | 17.24472 | 10284 ft | 201 kts | 348° |
| 2026-04-16 14:45 | 67.75325 | 17.23796 | 10273 ft | 203 kts | 348° |
| 2026-04-16 14:45 | 67.76705 | 17.23117 | 10264 ft | 203 kts | 348° |
| 2026-04-16 14:45 | 67.78088 | 17.22434 | 10261 ft | 204 kts | 348° |
| 2026-04-16 14:45 | 67.79479 | 17.21747 | 10255 ft | 204 kts | 348° |
| 2026-04-16 14:46 | 67.80868 | 17.21060 | 10250 ft | 204 kts | 348° |
| 2026-04-16 14:46 | 67.82247 | 17.20379 | 10246 ft | 203 kts | 348° |
| 2026-04-16 14:46 | 67.83630 | 17.19694 | 10245 ft | 203 kts | 349° |
| 2026-04-16 14:46 | 67.85026 | 17.19002 | 10241 ft | 203 kts | 348° |
| 2026-04-16 14:47 | 67.86398 | 17.18322 | 10238 ft | 203 kts | 348° |
| 2026-04-16 14:47 | 67.87786 | 17.17633 | 10234 ft | 203 kts | 348° |
| 2026-04-16 14:47 | 67.89165 | 17.16947 | 10230 ft | 203 kts | 348° |
| 2026-04-16 14:47 | 67.90545 | 17.16260 | 10227 ft | 203 kts | 348° |
| 2026-04-16 14:48 | 67.91941 | 17.15562 | 10221 ft | 202 kts | 349° |
| 2026-04-16 14:48 | 67.93303 | 17.14882 | 10218 ft | 202 kts | 349° |
| 2026-04-16 14:48 | 67.94683 | 17.14191 | 10215 ft | 202 kts | 349° |
| 2026-04-16 14:48 | 67.96065 | 17.13500 | 10211 ft | 202 kts | 349° |
| 2026-04-16 14:49 | 67.97419 | 17.12821 | 10205 ft | 201 kts | 349° |
| 2026-04-16 14:49 | 67.98776 | 17.12139 | 10182 ft | 188 kts | 349° |
| 2026-04-16 14:49 | 67.99972 | 17.11539 | 10152 ft | 169 kts | 349° |
| 2026-04-16 14:49 | 68.01122 | 17.10898 | 10174 ft | 167 kts | 343° |
| 2026-04-16 14:50 | 68.02174 | 17.09687 | 10185 ft | 167 kts | 330° |
| 2026-04-16 14:50 | 68.03108 | 17.07785 | 10188 ft | 168 kts | 316° |
| 2026-04-16 14:50 | 68.03832 | 17.05394 | 10186 ft | 169 kts | 306° |
| 2026-04-16 14:50 | 68.04459 | 17.02738 | 10187 ft | 169 kts | 303° |
| 2026-04-16 14:51 | 68.05073 | 17.00037 | 10188 ft | 169 kts | 303° |
| 2026-04-16 14:51 | 68.05679 | 16.97370 | 10193 ft | 169 kts | 303° |
| 2026-04-16 14:51 | 68.06297 | 16.94666 | 10196 ft | 169 kts | 303° |
| 2026-04-16 14:51 | 68.06909 | 16.91995 | 10197 ft | 169 kts | 303° |
| 2026-04-16 14:53 | 68.11117 | 16.73703 | 10113 ft | 159 kts | 304° |
| 2026-04-16 14:53 | 68.11695 | 16.71210 | 9693 ft | 159 kts | 304° |
| 2026-04-16 14:54 | 68.12409 | 16.69031 | 9193 ft | 159 kts | 326° |
| 2026-04-16 14:54 | 68.13397 | 16.67838 | 8719 ft | 159 kts | 349° |
| 2026-04-16 14:54 | 68.14490 | 16.67643 | 8260 ft | 158 kts | 1° |
| 2026-04-16 14:54 | 68.15577 | 16.67694 | 7820 ft | 157 kts | 2° |
| 2026-04-16 14:55 | 68.16655 | 16.67768 | 7397 ft | 155 kts | 3° |
| 2026-04-16 14:55 | 68.17712 | 16.67838 | 7234 ft | 153 kts | 3° |
| 2026-04-16 14:55 | 68.18780 | 16.67906 | 7234 ft | 154 kts | 2° |
| 2026-04-16 14:55 | 68.19859 | 16.67970 | 7234 ft | 154 kts | 2° |
| 2026-04-16 14:56 | 68.20926 | 16.68028 | 7228 ft | 154 kts | 2° |
| 2026-04-16 14:56 | 68.21991 | 16.68079 | 7238 ft | 154 kts | 2° |
| 2026-04-16 14:56 | 68.23057 | 16.68133 | 7235 ft | 154 kts | 2° |
| 2026-04-16 14:56 | 68.24135 | 16.68186 | 7232 ft | 154 kts | 2° |
| 2026-04-16 14:57 | 68.25204 | 16.68239 | 7239 ft | 154 kts | 2° |
| 2026-04-16 14:57 | 68.26281 | 16.68291 | 7248 ft | 154 kts | 2° |
| 2026-04-16 14:57 | 68.27344 | 16.68343 | 7255 ft | 155 kts | 2° |
| 2026-04-16 14:57 | 68.28420 | 16.68327 | 7056 ft | 155 kts | 1° |
| 2026-04-16 14:58 | 68.29536 | 16.68234 | 6785 ft | 166 kts | 360° |
| 2026-04-16 14:58 | 68.32017 | 16.68169 | 6207 ft | 193 kts | 3° |
| 2026-04-16 14:58 | 68.33390 | 16.68289 | 5913 ft | 201 kts | 4° |
| 2026-04-16 14:59 | 68.34731 | 16.68396 | 5562 ft | 190 kts | 4° |
| 2026-04-16 14:59 | 68.36041 | 16.68497 | 5064 ft | 188 kts | 3° |
| 2026-04-16 14:59 | 68.37328 | 16.68617 | 4553 ft | 186 kts | 3° |
| 2026-04-16 14:59 | 68.38615 | 16.68634 | 4015 ft | 187 kts | 2° |
| 2026-04-16 15:00 | 68.39898 | 16.68557 | 3454 ft | 188 kts | 0° |
| 2026-04-16 15:00 | 68.41196 | 16.68390 | 2977 ft | 185 kts | 0° |
| 2026-04-16 15:00 | 68.42464 | 16.68305 | 2439 ft | 186 kts | 1° |
| 2026-04-16 15:00 | 68.43748 | 16.68215 | 1833 ft | 190 kts | 2° |
| 2026-04-16 15:01 | 68.45066 | 16.68227 | 1262 ft | 189 kts | 1° |
| 2026-04-16 15:01 | 68.46370 | 16.68152 | 695 ft | 190 kts | 358° |
| 2026-04-16 15:01 | 68.47669 | 16.67960 | 314 ft | 185 kts | 357° |
| 2026-04-16 15:01 | 68.48903 | 16.67842 | 96 ft | 167 kts | 357° |
| 2026-04-16 15:02 | 68.49975 | 16.67779 | 238 ft | 150 kts | 1° |
| 2026-04-16 15:02 | 68.51055 | 16.67783 | 678 ft | 168 kts | 359° |
| 2026-04-16 15:02 | 68.52271 | 16.67442 | 1234 ft | 187 kts | 334° |
| 2026-04-16 15:02 | 68.53069 | 16.64805 | 1974 ft | 195 kts | 277° |
| 2026-04-16 15:03 | 68.52793 | 16.61327 | 2752 ft | 197 kts | 232° |
| 2026-04-16 15:03 | 68.51640 | 16.59216 | 3295 ft | 211 kts | 189° |
| 2026-04-16 15:03 | 68.50138 | 16.58869 | 3842 ft | 230 kts | 180° |
| 2026-04-16 15:03 | 68.48467 | 16.58832 | 3950 ft | 245 kts | 177° |
| 2026-04-16 15:04 | 68.46819 | 16.58936 | 3982 ft | 227 kts | 176° |
| 2026-04-16 15:04 | 68.45315 | 16.59175 | 3953 ft | 213 kts | 173° |
| 2026-04-16 15:04 | 68.43880 | 16.59604 | 4001 ft | 195 kts | 171° |
| 2026-04-16 15:04 | 68.42555 | 16.59922 | 4387 ft | 193 kts | 178° |
| 2026-04-16 15:05 | 68.41238 | 16.59658 | 4759 ft | 188 kts | 184° |
| 2026-04-16 15:05 | 68.39961 | 16.59190 | 5128 ft | 188 kts | 186° |
| 2026-04-16 15:05 | 68.38631 | 16.59053 | 5526 ft | 194 kts | 178° |
| 2026-04-16 15:05 | 68.37268 | 16.59053 | 5786 ft | 197 kts | 180° |
| 2026-04-16 15:06 | 68.35917 | 16.58875 | 5795 ft | 195 kts | 174° |
| 2026-04-16 15:06 | 68.34847 | 16.60774 | 6037 ft | 192 kts | 117° |
| 2026-04-16 15:06 | 68.34854 | 16.64233 | 6347 ft | 196 kts | 65° |
| 2026-04-16 15:06 | 68.35864 | 16.66704 | 5990 ft | 209 kts | 22° |
| 2026-04-16 15:07 | 68.37356 | 16.67117 | 5112 ft | 229 kts | 7° |
| 2026-04-16 15:07 | 68.38969 | 16.67020 | 4100 ft | 238 kts | 359° |
| 2026-04-16 15:07 | 68.40570 | 16.67414 | 3154 ft | 239 kts | 8° |
| 2026-04-16 15:07 | 68.42207 | 16.67850 | 2352 ft | 233 kts | 7° |
| 2026-04-16 15:08 | 68.43767 | 16.68040 | 1738 ft | 223 kts | 4° |
| 2026-04-16 15:08 | 68.45291 | 16.68106 | 1066 ft | 218 kts | 2° |
| 2026-04-16 15:08 | 68.46776 | 16.68093 | 419 ft | 212 kts | 358° |
| 2026-04-16 15:08 | 68.48183 | 16.67910 | 99 ft | 192 kts | 356° |
| 2026-04-16 15:09 | 68.49402 | 16.67770 | 74 ft | 164 kts | 356° |